KFMY

Page Field Airport

Fort Myers, Florida, USA
METAR KFMY 221511Z 14012KT 10SM BKN023 BKN033 BKN043 28/22 A3007 RMK AO2 T02780222
Observed Flight Rules
May-22 @ 15:11 UTC (41 minutes ago) Marginal Visual Flight Rules
Wind Visibility Clouds
140° at 12 knots 10 miles
  • Broken at 2,300' AGL
  • Broken at 3,300' AGL
  • Broken at 4,300' AGL
Temperatures Readings
Current 28°C / 82°F
Dewpoint 22°C / 72°F
Humidity 70%
Altimeter 30.07" Hg
Pressure 1018 hPa
Elevation 4
METAR KFMY 221511Z 14012KT 10SM BKN023 BKN033 BKN043 28/22 A3007 RMK AO2 T02780222
Observed Flight Rules
May-22 @ 15:11 UTC
(41 minutes ago)
MVFR
Wind Visibility
140° at 12 knots 10 miles
Clouds
  • Broken at 2,300' AGL
  • Broken at 3,300' AGL
  • Broken at 4,300' AGL
Temperature Dewpoint
28°C / 82°F 22°C / 72°F
Humidity Altimeter Pressure
70% 30.07" Hg 1018 hPa